sensor_id;sensor_type;location;lat;lon;timestamp;P1;durP1;ratioP1;P2;durP2;ratioP2
22973;SDS011;11653;50.848;4.584;2023-07-13T00:00:00;10.37;;;2.20;;
22973;SDS011;11653;50.848;4.584;2023-07-13T00:02:25;7.80;;;2.20;;
22973;SDS011;11653;50.848;4.584;2023-07-13T00:04:51;8.47;;;2.10;;
22973;SDS011;11653;50.848;4.584;2023-07-13T00:07:17;9.50;;;2.50;;
22973;SDS011;11653;50.848;4.584;2023-07-13T00:09:45;11.40;;;2.50;;
22973;SDS011;11653;50.848;4.584;2023-07-13T00:12:26;6.87;;;2.33;;
22973;SDS011;11653;50.848;4.584;2023-07-13T00:14:52;9.53;;;2.10;;
22973;SDS011;11653;50.848;4.584;2023-07-13T00:17:18;7.23;;;2.20;;
22973;SDS011;11653;50.848;4.584;2023-07-13T00:19:44;8.17;;;2.40;;
22973;SDS011;11653;50.848;4.584;2023-07-13T00:22:10;9.50;;;2.20;;
22973;SDS011;11653;50.848;4.584;2023-07-13T00:24:36;10.37;;;2.20;;
22973;SDS011;11653;50.848;4.584;2023-07-13T00:27:06;11.73;;;2.30;;
22973;SDS011;11653;50.848;4.584;2023-07-13T00:29:35;6.33;;;1.97;;
22973;SDS011;11653;50.848;4.584;2023-07-13T00:32:05;5.57;;;1.90;;
22973;SDS011;11653;50.848;4.584;2023-07-13T00:34:32;5.83;;;1.90;;
22973;SDS011;11653;50.848;4.584;2023-07-13T00:36:58;7.37;;;2.03;;
22973;SDS011;11653;50.848;4.584;2023-07-13T00:39:24;7.20;;;2.30;;
22973;SDS011;11653;50.848;4.584;2023-07-13T00:41:50;13.80;;;2.20;;
22973;SDS011;11653;50.848;4.584;2023-07-13T00:44:17;11.07;;;3.03;;
22973;SDS011;11653;50.848;4.584;2023-07-13T00:46:43;9.20;;;2.70;;
22973;SDS011;11653;50.848;4.584;2023-07-13T00:49:11;12.33;;;2.30;;
22973;SDS011;11653;50.848;4.584;2023-07-13T00:51:40;12.13;;;2.40;;
22973;SDS011;11653;50.848;4.584;2023-07-13T00:54:38;9.27;;;2.17;;
22973;SDS011;11653;50.848;4.584;2023-07-13T00:57:08;8.07;;;2.50;;
22973;SDS011;11653;50.848;4.584;2023-07-13T00:59:36;11.27;;;2.50;;
22973;SDS011;11653;50.848;4.584;2023-07-13T01:02:04;12.20;;;2.10;;
22973;SDS011;11653;50.848;4.584;2023-07-13T01:04:30;6.67;;;1.97;;
22973;SDS011;11653;50.848;4.584;2023-07-13T01:06:56;6.07;;;2.23;;
22973;SDS011;11653;50.848;4.584;2023-07-13T01:09:22;11.87;;;2.57;;
22973;SDS011;11653;50.848;4.584;2023-07-13T01:11:48;10.23;;;2.37;;
22973;SDS011;11653;50.848;4.584;2023-07-13T01:14:14;8.13;;;2.60;;
22973;SDS011;11653;50.848;4.584;2023-07-13T01:16:42;7.57;;;1.83;;
22973;SDS011;11653;50.848;4.584;2023-07-13T01:19:20;9.13;;;2.50;;
22973;SDS011;11653;50.848;4.584;2023-07-13T01:22:00;8.20;;;2.13;;
22973;SDS011;11653;50.848;4.584;2023-07-13T01:24:33;9.17;;;2.80;;
22973;SDS011;11653;50.848;4.584;2023-07-13T01:27:02;13.13;;;2.40;;
22973;SDS011;11653;50.848;4.584;2023-07-13T01:29:29;12.10;;;2.53;;
22973;SDS011;11653;50.848;4.584;2023-07-13T01:31:56;7.20;;;2.50;;
22973;SDS011;11653;50.848;4.584;2023-07-13T01:34:21;7.90;;;2.13;;
22973;SDS011;11653;50.848;4.584;2023-07-13T01:36:47;11.13;;;2.53;;
22973;SDS011;11653;50.848;4.584;2023-07-13T01:39:13;9.80;;;2.50;;
22973;SDS011;11653;50.848;4.584;2023-07-13T01:41:39;5.63;;;2.03;;
22973;SDS011;11653;50.848;4.584;2023-07-13T01:44:05;7.00;;;2.30;;
22973;SDS011;11653;50.848;4.584;2023-07-13T01:46:31;11.53;;;2.40;;
22973;SDS011;11653;50.848;4.584;2023-07-13T01:48:56;7.40;;;2.43;;
22973;SDS011;11653;50.848;4.584;2023-07-13T01:51:22;7.97;;;2.07;;
22973;SDS011;11653;50.848;4.584;2023-07-13T01:53:48;6.50;;;2.00;;
22973;SDS011;11653;50.848;4.584;2023-07-13T01:56:14;8.60;;;2.43;;
22973;SDS011;11653;50.848;4.584;2023-07-13T01:58:40;7.13;;;2.60;;
22973;SDS011;11653;50.848;4.584;2023-07-13T02:01:06;8.20;;;2.40;;
22973;SDS011;11653;50.848;4.584;2023-07-13T02:03:31;7.63;;;2.53;;
22973;SDS011;11653;50.848;4.584;2023-07-13T02:05:57;9.30;;;2.60;;
22973;SDS011;11653;50.848;4.584;2023-07-13T02:08:23;8.50;;;2.30;;
22973;SDS011;11653;50.848;4.584;2023-07-13T02:10:48;11.70;;;3.00;;
22973;SDS011;11653;50.848;4.584;2023-07-13T02:13:14;8.83;;;2.70;;
22973;SDS011;11653;50.848;4.584;2023-07-13T02:15:39;7.57;;;2.73;;
22973;SDS011;11653;50.848;4.584;2023-07-13T02:18:08;5.53;;;2.30;;
22973;SDS011;11653;50.848;4.584;2023-07-13T02:20:33;7.67;;;2.37;;
22973;SDS011;11653;50.848;4.584;2023-07-13T02:22:59;11.77;;;2.90;;
22973;SDS011;11653;50.848;4.584;2023-07-13T02:25:25;12.33;;;3.40;;
22973;SDS011;11653;50.848;4.584;2023-07-13T02:27:51;10.53;;;2.67;;
22973;SDS011;11653;50.848;4.584;2023-07-13T02:30:17;12.93;;;2.90;;
22973;SDS011;11653;50.848;4.584;2023-07-13T02:32:43;8.77;;;2.20;;
22973;SDS011;11653;50.848;4.584;2023-07-13T02:35:09;13.13;;;2.90;;
22973;SDS011;11653;50.848;4.584;2023-07-13T02:37:35;7.50;;;2.93;;
22973;SDS011;11653;50.848;4.584;2023-07-13T02:40:01;9.00;;;2.87;;
22973;SDS011;11653;50.848;4.584;2023-07-13T02:42:33;8.30;;;2.67;;
22973;SDS011;11653;50.848;4.584;2023-07-13T02:44:59;10.77;;;3.43;;
22973;SDS011;11653;50.848;4.584;2023-07-13T02:47:25;8.30;;;2.93;;
22973;SDS011;11653;50.848;4.584;2023-07-13T02:49:51;12.97;;;3.30;;
22973;SDS011;11653;50.848;4.584;2023-07-13T02:52:17;12.33;;;3.17;;
22973;SDS011;11653;50.848;4.584;2023-07-13T02:54:43;10.40;;;2.70;;
22973;SDS011;11653;50.848;4.584;2023-07-13T02:57:08;10.00;;;2.67;;
22973;SDS011;11653;50.848;4.584;2023-07-13T02:59:34;10.07;;;2.70;;
22973;SDS011;11653;50.848;4.584;2023-07-13T03:02:01;9.37;;;2.77;;
22973;SDS011;11653;50.848;4.584;2023-07-13T03:04:27;12.33;;;3.10;;
22973;SDS011;11653;50.848;4.584;2023-07-13T03:06:52;10.10;;;3.13;;
22973;SDS011;11653;50.848;4.584;2023-07-13T03:09:23;12.00;;;3.37;;
22973;SDS011;11653;50.848;4.584;2023-07-13T03:11:52;9.73;;;2.97;;
22973;SDS011;11653;50.848;4.584;2023-07-13T03:14:19;9.20;;;3.17;;
22973;SDS011;11653;50.848;4.584;2023-07-13T03:16:47;9.73;;;3.00;;
22973;SDS011;11653;50.848;4.584;2023-07-13T03:19:13;7.33;;;2.60;;
22973;SDS011;11653;50.848;4.584;2023-07-13T03:21:38;12.23;;;3.30;;
22973;SDS011;11653;50.848;4.584;2023-07-13T03:24:04;9.50;;;3.00;;
22973;SDS011;11653;50.848;4.584;2023-07-13T03:26:30;16.13;;;3.80;;
22973;SDS011;11653;50.848;4.584;2023-07-13T03:28:56;7.50;;;2.97;;
22973;SDS011;11653;50.848;4.584;2023-07-13T03:31:24;9.10;;;3.00;;
22973;SDS011;11653;50.848;4.584;2023-07-13T03:33:53;6.70;;;2.97;;
22973;SDS011;11653;50.848;4.584;2023-07-13T03:36:20;12.87;;;3.37;;
22973;SDS011;11653;50.848;4.584;2023-07-13T03:38:55;11.50;;;3.90;;
22973;SDS011;11653;50.848;4.584;2023-07-13T03:41:23;9.67;;;3.17;;
22973;SDS011;11653;50.848;4.584;2023-07-13T03:43:49;15.67;;;3.27;;
22973;SDS011;11653;50.848;4.584;2023-07-13T03:46:16;10.17;;;2.90;;
22973;SDS011;11653;50.848;4.584;2023-07-13T03:48:43;7.40;;;3.17;;
22973;SDS011;11653;50.848;4.584;2023-07-13T03:51:10;12.07;;;3.23;;
22973;SDS011;11653;50.848;4.584;2023-07-13T03:53:39;13.77;;;3.50;;
22973;SDS011;11653;50.848;4.584;2023-07-13T03:56:06;9.67;;;3.50;;
22973;SDS011;11653;50.848;4.584;2023-07-13T03:58:34;13.67;;;3.43;;
22973;SDS011;11653;50.848;4.584;2023-07-13T04:01:02;17.37;;;3.23;;
22973;SDS011;11653;50.848;4.584;2023-07-13T04:03:30;9.33;;;3.50;;
22973;SDS011;11653;50.848;4.584;2023-07-13T04:05:57;12.83;;;3.60;;
22973;SDS011;11653;50.848;4.584;2023-07-13T04:08:28;17.30;;;3.17;;
22973;SDS011;11653;50.848;4.584;2023-07-13T04:10:56;12.37;;;3.37;;
22973;SDS011;11653;50.848;4.584;2023-07-13T04:13:23;14.47;;;4.07;;
22973;SDS011;11653;50.848;4.584;2023-07-13T04:15:49;9.93;;;3.47;;
22973;SDS011;11653;50.848;4.584;2023-07-13T04:18:15;16.57;;;3.80;;
22973;SDS011;11653;50.848;4.584;2023-07-13T04:20:41;11.03;;;3.30;;
22973;SDS011;11653;50.848;4.584;2023-07-13T04:23:07;11.87;;;3.00;;
22973;SDS011;11653;50.848;4.584;2023-07-13T04:25:33;15.50;;;3.80;;
22973;SDS011;11653;50.848;4.584;2023-07-13T04:27:58;17.67;;;3.90;;
22973;SDS011;11653;50.848;4.584;2023-07-13T04:30:24;15.53;;;3.90;;
22973;SDS011;11653;50.848;4.584;2023-07-13T04:32:50;13.67;;;3.20;;
22973;SDS011;11653;50.848;4.584;2023-07-13T04:35:17;12.47;;;3.30;;
22973;SDS011;11653;50.848;4.584;2023-07-13T04:37:46;9.60;;;3.00;;
22973;SDS011;11653;50.848;4.584;2023-07-13T04:40:13;16.27;;;3.47;;
22973;SDS011;11653;50.848;4.584;2023-07-13T04:42:39;11.83;;;3.20;;
22973;SDS011;11653;50.848;4.584;2023-07-13T04:45:06;13.33;;;2.97;;
22973;SDS011;11653;50.848;4.584;2023-07-13T04:47:32;12.27;;;3.90;;
22973;SDS011;11653;50.848;4.584;2023-07-13T04:49:58;20.40;;;3.83;;
22973;SDS011;11653;50.848;4.584;2023-07-13T04:52:23;16.63;;;3.20;;
22973;SDS011;11653;50.848;4.584;2023-07-13T04:54:49;21.50;;;4.40;;
22973;SDS011;11653;50.848;4.584;2023-07-13T04:57:16;13.90;;;3.37;;
22973;SDS011;11653;50.848;4.584;2023-07-13T04:59:42;12.07;;;3.33;;
22973;SDS011;11653;50.848;4.584;2023-07-13T05:02:07;9.53;;;3.47;;
22973;SDS011;11653;50.848;4.584;2023-07-13T05:04:33;16.30;;;3.77;;
22973;SDS011;11653;50.848;4.584;2023-07-13T05:06:59;15.60;;;4.27;;
22973;SDS011;11653;50.848;4.584;2023-07-13T05:09:24;10.27;;;3.07;;
22973;SDS011;11653;50.848;4.584;2023-07-13T05:11:50;11.80;;;3.80;;
22973;SDS011;11653;50.848;4.584;2023-07-13T05:14:16;10.40;;;2.97;;
22973;SDS011;11653;50.848;4.584;2023-07-13T05:16:42;15.03;;;3.40;;
22973;SDS011;11653;50.848;4.584;2023-07-13T05:19:08;15.97;;;4.00;;
22973;SDS011;11653;50.848;4.584;2023-07-13T05:21:34;12.97;;;3.17;;
22973;SDS011;11653;50.848;4.584;2023-07-13T05:23:59;11.80;;;3.40;;
22973;SDS011;11653;50.848;4.584;2023-07-13T05:26:25;11.60;;;3.17;;
22973;SDS011;11653;50.848;4.584;2023-07-13T05:28:51;13.97;;;3.47;;
22973;SDS011;11653;50.848;4.584;2023-07-13T05:31:16;10.80;;;3.27;;
22973;SDS011;11653;50.848;4.584;2023-07-13T05:33:42;13.20;;;4.03;;
22973;SDS011;11653;50.848;4.584;2023-07-13T05:36:08;11.27;;;3.63;;
22973;SDS011;11653;50.848;4.584;2023-07-13T05:38:33;11.07;;;3.37;;
22973;SDS011;11653;50.848;4.584;2023-07-13T05:40:59;14.23;;;3.70;;
22973;SDS011;11653;50.848;4.584;2023-07-13T05:43:25;13.23;;;3.90;;
22973;SDS011;11653;50.848;4.584;2023-07-13T05:45:55;11.37;;;3.30;;
22973;SDS011;11653;50.848;4.584;2023-07-13T05:48:21;13.30;;;4.03;;
22973;SDS011;11653;50.848;4.584;2023-07-13T05:50:47;12.83;;;3.43;;
22973;SDS011;11653;50.848;4.584;2023-07-13T05:53:12;16.33;;;3.43;;
22973;SDS011;11653;50.848;4.584;2023-07-13T05:55:45;18.87;;;3.83;;
22973;SDS011;11653;50.848;4.584;2023-07-13T05:58:12;14.33;;;4.00;;
22973;SDS011;11653;50.848;4.584;2023-07-13T06:00:39;18.43;;;3.77;;
22973;SDS011;11653;50.848;4.584;2023-07-13T06:03:05;17.23;;;3.43;;
22973;SDS011;11653;50.848;4.584;2023-07-13T06:05:32;18.87;;;4.20;;
22973;SDS011;11653;50.848;4.584;2023-07-13T06:07:59;11.03;;;3.77;;
22973;SDS011;11653;50.848;4.584;2023-07-13T06:10:25;13.33;;;3.40;;
22973;SDS011;11653;50.848;4.584;2023-07-13T06:12:51;16.13;;;3.70;;
22973;SDS011;11653;50.848;4.584;2023-07-13T06:15:16;13.17;;;3.73;;
22973;SDS011;11653;50.848;4.584;2023-07-13T06:17:42;12.03;;;3.70;;
22973;SDS011;11653;50.848;4.584;2023-07-13T06:20:08;6.03;;;3.07;;
22973;SDS011;11653;50.848;4.584;2023-07-13T06:22:34;12.23;;;3.53;;
22973;SDS011;11653;50.848;4.584;2023-07-13T06:25:00;16.80;;;3.53;;
22973;SDS011;11653;50.848;4.584;2023-07-13T06:27:26;10.70;;;3.47;;
22973;SDS011;11653;50.848;4.584;2023-07-13T06:29:52;11.03;;;3.10;;
22973;SDS011;11653;50.848;4.584;2023-07-13T06:32:17;12.53;;;3.00;;
22973;SDS011;11653;50.848;4.584;2023-07-13T06:34:43;14.40;;;3.97;;
22973;SDS011;11653;50.848;4.584;2023-07-13T06:37:09;10.23;;;3.33;;
22973;SDS011;11653;50.848;4.584;2023-07-13T06:39:35;13.87;;;3.70;;
22973;SDS011;11653;50.848;4.584;2023-07-13T06:42:01;14.37;;;3.60;;
22973;SDS011;11653;50.848;4.584;2023-07-13T06:44:26;11.00;;;3.73;;
22973;SDS011;11653;50.848;4.584;2023-07-13T06:46:52;12.67;;;3.90;;
22973;SDS011;11653;50.848;4.584;2023-07-13T06:49:18;13.07;;;3.57;;
22973;SDS011;11653;50.848;4.584;2023-07-13T06:51:44;13.17;;;3.53;;
22973;SDS011;11653;50.848;4.584;2023-07-13T06:54:09;13.70;;;3.70;;
22973;SDS011;11653;50.848;4.584;2023-07-13T06:56:35;12.63;;;3.40;;
22973;SDS011;11653;50.848;4.584;2023-07-13T06:59:00;16.57;;;3.67;;
22973;SDS011;11653;50.848;4.584;2023-07-13T07:01:26;11.53;;;3.27;;
22973;SDS011;11653;50.848;4.584;2023-07-13T07:03:52;15.80;;;3.53;;
22973;SDS011;11653;50.848;4.584;2023-07-13T07:06:19;11.93;;;3.80;;
22973;SDS011;11653;50.848;4.584;2023-07-13T07:08:48;13.30;;;3.87;;
22973;SDS011;11653;50.848;4.584;2023-07-13T07:11:16;14.10;;;3.10;;
22973;SDS011;11653;50.848;4.584;2023-07-13T07:13:44;16.07;;;3.80;;
22973;SDS011;11653;50.848;4.584;2023-07-13T07:16:09;9.77;;;3.00;;
22973;SDS011;11653;50.848;4.584;2023-07-13T07:18:35;12.70;;;3.67;;
22973;SDS011;11653;50.848;4.584;2023-07-13T07:21:01;9.83;;;3.30;;
22973;SDS011;11653;50.848;4.584;2023-07-13T07:23:27;14.73;;;3.73;;
22973;SDS011;11653;50.848;4.584;2023-07-13T07:25:53;12.57;;;3.10;;
22973;SDS011;11653;50.848;4.584;2023-07-13T07:28:19;11.03;;;3.13;;
22973;SDS011;11653;50.848;4.584;2023-07-13T07:30:45;14.43;;;3.17;;
22973;SDS011;11653;50.848;4.584;2023-07-13T07:33:11;11.43;;;3.40;;
22973;SDS011;11653;50.848;4.584;2023-07-13T07:35:37;11.37;;;3.20;;
22973;SDS011;11653;50.848;4.584;2023-07-13T07:38:04;8.17;;;2.67;;
22973;SDS011;11653;50.848;4.584;2023-07-13T07:40:29;12.07;;;3.40;;
22973;SDS011;11653;50.848;4.584;2023-07-13T07:42:56;10.50;;;2.93;;
22973;SDS011;11653;50.848;4.584;2023-07-13T07:45:22;12.23;;;2.87;;
22973;SDS011;11653;50.848;4.584;2023-07-13T07:47:48;12.03;;;2.87;;
22973;SDS011;11653;50.848;4.584;2023-07-13T07:50:14;13.00;;;3.40;;
22973;SDS011;11653;50.848;4.584;2023-07-13T07:52:40;14.90;;;3.13;;
22973;SDS011;11653;50.848;4.584;2023-07-13T07:55:06;13.37;;;3.73;;
22973;SDS011;11653;50.848;4.584;2023-07-13T07:57:33;9.70;;;3.10;;
22973;SDS011;11653;50.848;4.584;2023-07-13T07:59:59;17.77;;;3.53;;
22973;SDS011;11653;50.848;4.584;2023-07-13T08:02:25;13.30;;;3.33;;
22973;SDS011;11653;50.848;4.584;2023-07-13T08:04:51;12.17;;;3.07;;
22973;SDS011;11653;50.848;4.584;2023-07-13T08:07:17;16.20;;;3.27;;
22973;SDS011;11653;50.848;4.584;2023-07-13T08:09:43;10.97;;;3.27;;
22973;SDS011;11653;50.848;4.584;2023-07-13T08:12:09;13.60;;;3.10;;
22973;SDS011;11653;50.848;4.584;2023-07-13T08:14:35;7.20;;;2.47;;
22973;SDS011;11653;50.848;4.584;2023-07-13T08:17:00;9.57;;;2.87;;
22973;SDS011;11653;50.848;4.584;2023-07-13T08:19:26;13.37;;;3.00;;
22973;SDS011;11653;50.848;4.584;2023-07-13T08:21:52;11.13;;;2.70;;
22973;SDS011;11653;50.848;4.584;2023-07-13T08:24:18;9.93;;;2.33;;
22973;SDS011;11653;50.848;4.584;2023-07-13T08:26:46;8.73;;;2.53;;
22973;SDS011;11653;50.848;4.584;2023-07-13T08:29:12;7.17;;;2.40;;
22973;SDS011;11653;50.848;4.584;2023-07-13T08:31:37;8.15;;;2.15;;
22973;SDS011;11653;50.848;4.584;2023-07-13T08:34:03;8.18;;;2.47;;
22973;SDS011;11653;50.848;4.584;2023-07-13T08:36:29;7.97;;;2.00;;
22973;SDS011;11653;50.848;4.584;2023-07-13T08:38:54;7.32;;;2.10;;
22973;SDS011;11653;50.848;4.584;2023-07-13T08:41:20;8.68;;;2.25;;
22973;SDS011;11653;50.848;4.584;2023-07-13T08:43:47;7.13;;;2.05;;
22973;SDS011;11653;50.848;4.584;2023-07-13T08:46:26;11.90;;;2.38;;
22973;SDS011;11653;50.848;4.584;2023-07-13T08:48:56;6.57;;;2.30;;
22973;SDS011;11653;50.848;4.584;2023-07-13T08:51:52;7.73;;;2.33;;
22973;SDS011;11653;50.848;4.584;2023-07-13T08:54:29;11.97;;;2.53;;
22973;SDS011;11653;50.848;4.584;2023-07-13T08:57:02;9.70;;;2.30;;
22973;SDS011;11653;50.848;4.584;2023-07-13T08:59:37;9.87;;;2.43;;
22973;SDS011;11653;50.848;4.584;2023-07-13T09:04:59;7.03;;;2.00;;
22973;SDS011;11653;50.848;4.584;2023-07-13T09:07:38;7.67;;;1.93;;
22973;SDS011;11653;50.848;4.584;2023-07-13T09:10:16;6.50;;;2.05;;
22973;SDS011;11653;50.848;4.584;2023-07-13T09:18:16;8.23;;;1.95;;
22973;SDS011;11653;50.848;4.584;2023-07-13T09:20:57;7.38;;;2.00;;
22973;SDS011;11653;50.848;4.584;2023-07-13T09:23:28;6.80;;;2.10;;
22973;SDS011;11653;50.848;4.584;2023-07-13T09:26:03;4.15;;;1.55;;
22973;SDS011;11653;50.848;4.584;2023-07-13T09:28:38;6.55;;;1.52;;
22973;SDS011;11653;50.848;4.584;2023-07-13T09:31:15;7.78;;;1.98;;
22973;SDS011;11653;50.848;4.584;2023-07-13T09:33:48;8.45;;;1.80;;
22973;SDS011;11653;50.848;4.584;2023-07-13T09:39:02;5.80;;;1.83;;
22973;SDS011;11653;50.848;4.584;2023-07-13T09:44:01;4.35;;;1.65;;
22973;SDS011;11653;50.848;4.584;2023-07-13T09:46:26;4.55;;;1.30;;
22973;SDS011;11653;50.848;4.584;2023-07-13T09:48:52;5.47;;;1.80;;
22973;SDS011;11653;50.848;4.584;2023-07-13T09:51:18;3.92;;;1.70;;
22973;SDS011;11653;50.848;4.584;2023-07-13T09:53:44;7.50;;;1.70;;
22973;SDS011;11653;50.848;4.584;2023-07-13T09:59:08;7.72;;;2.05;;
22973;SDS011;11653;50.848;4.584;2023-07-13T10:01:44;7.55;;;2.38;;
22973;SDS011;11653;50.848;4.584;2023-07-13T10:04:11;5.63;;;1.90;;
22973;SDS011;11653;50.848;4.584;2023-07-13T10:06:38;7.68;;;2.05;;
22973;SDS011;11653;50.848;4.584;2023-07-13T10:09:08;7.55;;;1.75;;
22973;SDS011;11653;50.848;4.584;2023-07-13T10:11:35;6.60;;;1.73;;
22973;SDS011;11653;50.848;4.584;2023-07-13T10:14:15;4.68;;;1.92;;
22973;SDS011;11653;50.848;4.584;2023-07-13T10:16:43;6.38;;;1.60;;
22973;SDS011;11653;50.848;4.584;2023-07-13T10:19:12;4.63;;;1.95;;
22973;SDS011;11653;50.848;4.584;2023-07-13T10:21:55;4.38;;;1.40;;
22973;SDS011;11653;50.848;4.584;2023-07-13T10:24:23;6.73;;;1.90;;
22973;SDS011;11653;50.848;4.584;2023-07-13T10:29:53;5.55;;;1.80;;
22973;SDS011;11653;50.848;4.584;2023-07-13T10:32:25;6.43;;;1.85;;
22973;SDS011;11653;50.848;4.584;2023-07-13T10:34:50;6.93;;;1.70;;
22973;SDS011;11653;50.848;4.584;2023-07-13T10:37:27;6.15;;;1.60;;
22973;SDS011;11653;50.848;4.584;2023-07-13T10:40:12;5.82;;;1.70;;
22973;SDS011;11653;50.848;4.584;2023-07-13T10:42:42;5.40;;;1.58;;
22973;SDS011;11653;50.848;4.584;2023-07-13T10:45:15;5.75;;;1.48;;
22973;SDS011;11653;50.848;4.584;2023-07-13T10:47:44;4.03;;;1.70;;
22973;SDS011;11653;50.848;4.584;2023-07-13T10:50:15;6.38;;;1.35;;
22973;SDS011;11653;50.848;4.584;2023-07-13T10:52:46;5.82;;;1.85;;
22973;SDS011;11653;50.848;4.584;2023-07-13T10:58:12;5.97;;;1.45;;
22973;SDS011;11653;50.848;4.584;2023-07-13T11:00:47;8.43;;;2.33;;
22973;SDS011;11653;50.848;4.584;2023-07-13T11:03:17;7.30;;;1.73;;
22973;SDS011;11653;50.848;4.584;2023-07-13T11:05:44;4.75;;;1.40;;
22973;SDS011;11653;50.848;4.584;2023-07-13T11:08:32;7.88;;;2.25;;
22973;SDS011;11653;50.848;4.584;2023-07-13T11:11:02;8.18;;;1.85;;
22973;SDS011;11653;50.848;4.584;2023-07-13T11:13:38;8.27;;;1.95;;
22973;SDS011;11653;50.848;4.584;2023-07-13T11:16:44;6.80;;;1.55;;
22973;SDS011;11653;50.848;4.584;2023-07-13T11:28:05;4.27;;;1.20;;
22973;SDS011;11653;50.848;4.584;2023-07-13T11:36:06;4.38;;;1.25;;
22973;SDS011;11653;50.848;4.584;2023-07-13T11:38:39;6.72;;;1.58;;
22973;SDS011;11653;50.848;4.584;2023-07-13T11:41:10;3.40;;;1.30;;
22973;SDS011;11653;50.848;4.584;2023-07-13T11:43:45;7.13;;;1.23;;
22973;SDS011;11653;50.848;4.584;2023-07-13T11:48:39;5.43;;;1.20;;
22973;SDS011;11653;50.848;4.584;2023-07-13T11:51:06;4.38;;;1.27;;
22973;SDS011;11653;50.848;4.584;2023-07-13T11:53:53;4.93;;;1.35;;
22973;SDS011;11653;50.848;4.584;2023-07-13T11:56:20;5.05;;;1.27;;
22973;SDS011;11653;50.848;4.584;2023-07-13T11:58:51;4.30;;;0.90;;
22973;SDS011;11653;50.848;4.584;2023-07-13T12:01:22;2.10;;;1.00;;
22973;SDS011;11653;50.848;4.584;2023-07-13T12:03:51;3.22;;;1.25;;
22973;SDS011;11653;50.848;4.584;2023-07-13T12:06:23;6.45;;;1.70;;
22973;SDS011;11653;50.848;4.584;2023-07-13T12:08:55;3.97;;;1.47;;
22973;SDS011;11653;50.848;4.584;2023-07-13T12:11:23;5.03;;;1.53;;
22973;SDS011;11653;50.848;4.584;2023-07-13T12:13:49;6.23;;;1.57;;
22973;SDS011;11653;50.848;4.584;2023-07-13T12:16:36;5.07;;;1.57;;
22973;SDS011;11653;50.848;4.584;2023-07-13T12:19:02;5.50;;;1.70;;
22973;SDS011;11653;50.848;4.584;2023-07-13T12:21:32;6.03;;;1.63;;
22973;SDS011;11653;50.848;4.584;2023-07-13T12:24:02;5.67;;;1.53;;
22973;SDS011;11653;50.848;4.584;2023-07-13T12:26:29;5.27;;;1.60;;
22973;SDS011;11653;50.848;4.584;2023-07-13T12:28:56;5.13;;;1.67;;
22973;SDS011;11653;50.848;4.584;2023-07-13T12:31:29;4.70;;;1.63;;
22973;SDS011;11653;50.848;4.584;2023-07-13T12:33:59;5.33;;;1.40;;
22973;SDS011;11653;50.848;4.584;2023-07-13T12:36:26;5.27;;;2.10;;
22973;SDS011;11653;50.848;4.584;2023-07-13T12:38:54;4.37;;;1.20;;
22973;SDS011;11653;50.848;4.584;2023-07-13T12:41:33;3.10;;;1.57;;
22973;SDS011;11653;50.848;4.584;2023-07-13T12:43:59;10.20;;;1.90;;
22973;SDS011;11653;50.848;4.584;2023-07-13T12:46:25;6.27;;;1.87;;
22973;SDS011;11653;50.848;4.584;2023-07-13T12:48:54;4.50;;;1.47;;
22973;SDS011;11653;50.848;4.584;2023-07-13T12:51:26;4.70;;;1.63;;
22973;SDS011;11653;50.848;4.584;2023-07-13T12:53:57;2.13;;;1.23;;
22973;SDS011;11653;50.848;4.584;2023-07-13T12:56:43;2.77;;;1.10;;
22973;SDS011;11653;50.848;4.584;2023-07-13T12:59:12;2.30;;;1.23;;
22973;SDS011;11653;50.848;4.584;2023-07-13T13:01:42;4.30;;;1.30;;
22973;SDS011;11653;50.848;4.584;2023-07-13T13:04:08;3.50;;;1.43;;
22973;SDS011;11653;50.848;4.584;2023-07-13T13:06:36;2.63;;;1.40;;
22973;SDS011;11653;50.848;4.584;2023-07-13T13:09:03;2.43;;;1.40;;
22973;SDS011;11653;50.848;4.584;2023-07-13T13:11:34;2.80;;;1.43;;
22973;SDS011;11653;50.848;4.584;2023-07-13T13:14:00;3.83;;;2.00;;
22973;SDS011;11653;50.848;4.584;2023-07-13T13:18:53;4.10;;;2.20;;
22973;SDS011;11653;50.848;4.584;2023-07-13T13:21:24;4.73;;;2.77;;
22973;SDS011;11653;50.848;4.584;2023-07-13T13:23:51;3.60;;;2.10;;
22973;SDS011;11653;50.848;4.584;2023-07-13T13:26:18;5.30;;;2.50;;
22973;SDS011;11653;50.848;4.584;2023-07-13T13:28:46;4.87;;;2.50;;
22973;SDS011;11653;50.848;4.584;2023-07-13T13:31:13;7.97;;;2.80;;
22973;SDS011;11653;50.848;4.584;2023-07-13T13:33:40;5.70;;;2.30;;
22973;SDS011;11653;50.848;4.584;2023-07-13T13:36:20;4.23;;;2.17;;
22973;SDS011;11653;50.848;4.584;2023-07-13T13:38:48;5.07;;;2.20;;
22973;SDS011;11653;50.848;4.584;2023-07-13T13:41:15;2.73;;;1.50;;
22973;SDS011;11653;50.848;4.584;2023-07-13T13:43:41;6.40;;;1.83;;
22973;SDS011;11653;50.848;4.584;2023-07-13T13:46:24;4.10;;;1.97;;
22973;SDS011;11653;50.848;4.584;2023-07-13T13:48:50;3.83;;;1.80;;
22973;SDS011;11653;50.848;4.584;2023-07-13T13:51:20;3.97;;;1.63;;
22973;SDS011;11653;50.848;4.584;2023-07-13T13:53:47;4.20;;;1.47;;
22973;SDS011;11653;50.848;4.584;2023-07-13T13:56:14;1.77;;;1.23;;
22973;SDS011;11653;50.848;4.584;2023-07-13T13:58:40;6.00;;;1.90;;
22973;SDS011;11653;50.848;4.584;2023-07-13T14:01:13;3.63;;;1.37;;
22973;SDS011;11653;50.848;4.584;2023-07-13T14:03:43;5.63;;;1.80;;
22973;SDS011;11653;50.848;4.584;2023-07-13T14:06:11;6.43;;;1.60;;
22973;SDS011;11653;50.848;4.584;2023-07-13T14:08:38;3.83;;;1.40;;
22973;SDS011;11653;50.848;4.584;2023-07-13T14:11:04;5.40;;;2.03;;
22973;SDS011;11653;50.848;4.584;2023-07-13T14:13:35;4.40;;;1.60;;
22973;SDS011;11653;50.848;4.584;2023-07-13T14:16:09;5.43;;;1.90;;
22973;SDS011;11653;50.848;4.584;2023-07-13T14:18:42;4.93;;;1.70;;
22973;SDS011;11653;50.848;4.584;2023-07-13T14:21:28;4.37;;;1.60;;
22973;SDS011;11653;50.848;4.584;2023-07-13T14:23:54;4.33;;;1.90;;
22973;SDS011;11653;50.848;4.584;2023-07-13T14:26:21;3.77;;;1.50;;
22973;SDS011;11653;50.848;4.584;2023-07-13T14:28:50;4.43;;;1.60;;
22973;SDS011;11653;50.848;4.584;2023-07-13T14:31:18;4.37;;;1.80;;
22973;SDS011;11653;50.848;4.584;2023-07-13T14:33:45;7.20;;;1.80;;
22973;SDS011;11653;50.848;4.584;2023-07-13T14:38:59;5.77;;;1.70;;
22973;SDS011;11653;50.848;4.584;2023-07-13T14:41:33;5.47;;;1.80;;
22973;SDS011;11653;50.848;4.584;2023-07-13T14:43:59;3.03;;;1.40;;
22973;SDS011;11653;50.848;4.584;2023-07-13T14:46:29;3.33;;;1.97;;
22973;SDS011;11653;50.848;4.584;2023-07-13T14:49:04;5.57;;;1.70;;
22973;SDS011;11653;50.848;4.584;2023-07-13T14:51:46;4.07;;;1.40;;
22973;SDS011;11653;50.848;4.584;2023-07-13T14:54:11;3.27;;;1.50;;
22973;SDS011;11653;50.848;4.584;2023-07-13T14:56:37;3.93;;;1.60;;
22973;SDS011;11653;50.848;4.584;2023-07-13T14:59:03;3.13;;;1.60;;
22973;SDS011;11653;50.848;4.584;2023-07-13T15:01:30;3.43;;;1.50;;
22973;SDS011;11653;50.848;4.584;2023-07-13T15:03:56;5.97;;;1.73;;
22973;SDS011;11653;50.848;4.584;2023-07-13T15:06:23;6.60;;;1.30;;
22973;SDS011;11653;50.848;4.584;2023-07-13T15:08:49;6.40;;;1.90;;
22973;SDS011;11653;50.848;4.584;2023-07-13T15:11:15;3.27;;;1.40;;
22973;SDS011;11653;50.848;4.584;2023-07-13T15:13:41;3.97;;;1.50;;
22973;SDS011;11653;50.848;4.584;2023-07-13T15:16:21;3.60;;;1.47;;
22973;SDS011;11653;50.848;4.584;2023-07-13T15:18:49;3.67;;;1.27;;
22973;SDS011;11653;50.848;4.584;2023-07-13T15:21:21;2.30;;;1.33;;
22973;SDS011;11653;50.848;4.584;2023-07-13T15:23:49;2.37;;;1.20;;
22973;SDS011;11653;50.848;4.584;2023-07-13T15:26:16;2.13;;;1.27;;
22973;SDS011;11653;50.848;4.584;2023-07-13T15:28:43;3.43;;;1.50;;
22973;SDS011;11653;50.848;4.584;2023-07-13T15:31:43;5.53;;;1.60;;
22973;SDS011;11653;50.848;4.584;2023-07-13T15:34:04;4.83;;;1.43;;